Terminal Aerodrome Forecast
Issued by NWS Denver/Boulder, CO

Home | Current Version | Previous Version | Text Only | Print | Product List | Glossary On
Versions: 1 2 3 4 5 6 7 8 9 10 11 12 13 14 15 16 17 18 19 20 21 22 23 24 25 26 27 28 29 30 31 32 33 34 35 36 37 38 39 40 41 42 43 44 45 46 47 48 49 50
000
FTUS45 KBOU 030308 AAB
TAFDEN
TAF AMD
KDEN 030308Z 0303/0406 19008KT P6SM SCT120 BKN180
     FM030500 20012KT P6SM SCT120 BKN220
     FM030900 19010KT P6SM FEW120 SCT220
     FM031700 13008KT P6SM SCT120 BKN200
     FM032200 16010KT P6SM VCTS SCT070CB BKN120 PROB30 0322/0402
      VRB18G30KT -TSRA BKN080CB=

USA.gov is the U.S. government's official web portal to all federal, state and local government web resources and services.